Time;durP1;ratioP1;P1;durP2;ratioP2;P2;SDS_P1;SDS_P2;PMS_P1;PMS_P2;Temp;Humidity;BMP_temperature;BMP_pressure;BME280_temperature;BME280_humidity;BME280_pressure;Samples;Min_cycle;Max_cycle;Signal;HPM_P1;HPM_P2
2022/07/28 00:00:43;;;;;;;0.47;0.47;;;;;;;;;;7393292;19;20117;-67
2022/07/28 00:03:08;;;;;;;0.95;0.95;;;;;;;;;;7391472;19;20145;-66
2022/07/28 00:05:33;;;;;;;0.30;0.30;;;;;;;;;;7392681;19;20192;-67
2022/07/28 00:07:59;;;;;;;0.35;0.35;;;;;;;;;;7391405;19;20170;-68
2022/07/28 00:10:24;;;;;;;0.40;0.40;;;;;;;;;;7392374;19;20478;-68
2022/07/28 00:12:50;;;;;;;0.20;0.20;;;;;;;;;;7392273;19;20182;-68
2022/07/28 00:15:15;;;;;;;0.30;0.30;;;;;;;;;;7391220;19;20117;-68
2022/07/28 00:17:40;;;;;;;0.30;0.30;;;;;;;;;;7391528;19;20133;-67
2022/07/28 00:20:06;;;;;;;0.30;0.30;;;;;;;;;;7389556;19;20166;-68
2022/07/28 00:22:32;;;;;;;0.30;0.30;;;;;;;;;;7392035;19;20172;-68
2022/07/28 00:24:57;;;;;;;0.57;0.57;;;;;;;;;;7391744;19;20183;-68
2022/07/28 00:27:23;;;;;;;1.08;1.02;;;;;;;;;;7390700;19;20133;-68
2022/07/28 00:29:49;;;;;;;0.30;0.30;;;;;;;;;;7391006;19;20117;-68
2022/07/28 00:32:14;;;;;;;0.30;0.30;;;;;;;;;;7389823;19;20160;-68
2022/07/28 00:34:39;;;;;;;0.30;0.30;;;;;;;;;;7390105;19;20121;-67
2022/07/28 00:37:05;;;;;;;0.30;0.30;;;;;;;;;;7391671;19;20149;-68
2022/07/28 00:39:30;;;;;;;0.60;0.60;;;;;;;;;;7392211;19;20121;-67
2022/07/28 00:41:55;;;;;;;0.30;0.30;;;;;;;;;;7390291;19;20152;-66
2022/07/28 00:44:21;;;;;;;0.30;0.30;;;;;;;;;;7391170;19;20144;-68
2022/07/28 00:46:46;;;;;;;0.35;0.35;;;;;;;;;;7389537;19;20237;-68
2022/07/28 00:49:15;;;;;;;0.40;0.40;;;;;;;;;;7390284;19;20124;-68
2022/07/28 00:51:40;;;;;;;0.30;0.30;;;;;;;;;;7390049;19;20148;-67
2022/07/28 00:54:06;;;;;;;0.40;0.40;;;;;;;;;;7390786;19;20149;-68
2022/07/28 00:56:33;;;;;;;0.40;0.40;;;;;;;;;;7389493;19;20673;-68
2022/07/28 00:58:58;;;;;;;0.38;0.38;;;;;;;;;;7392066;19;20532;-68
2022/07/28 01:01:23;;;;;;;0.30;0.30;;;;;;;;;;7390236;19;20523;-67
2022/07/28 01:03:58;;;;;;;0.30;0.30;;;;;;;;;;7389296;19;20492;-67
2022/07/28 01:06:29;;;;;;;0.20;0.20;;;;;;;;;;7388081;19;20120;-67
2022/07/28 01:09:18;;;;;;;0.73;0.73;;;;;;;;;;7391467;19;20125;-68
2022/07/28 01:12:11;;;;;;;0.50;0.50;;;;;;;;;;7390595;19;20603;-68
2022/07/28 01:14:39;;;;;;;0.38;0.38;;;;;;;;;;7388211;19;20467;-67
2022/07/28 01:17:22;;;;;;;0.30;0.30;;;;;;;;;;7391374;19;20142;-68
2022/07/28 01:19:48;;;;;;;0.30;0.30;;;;;;;;;;7389463;19;20129;-68
2022/07/28 01:22:17;;;;;;;0.60;0.60;;;;;;;;;;7388922;19;20152;-66
2022/07/28 01:24:55;;;;;;;0.35;0.35;;;;;;;;;;7388308;19;20125;-68
2022/07/28 01:27:39;;;;;;;0.30;0.30;;;;;;;;;;7389272;19;20602;-67
2022/07/28 01:30:14;;;;;;;0.30;0.30;;;;;;;;;;7390870;19;20144;-67
2022/07/28 01:32:45;;;;;;;0.30;0.30;;;;;;;;;;7387661;19;20172;-67
2022/07/28 01:35:15;;;;;;;0.30;0.30;;;;;;;;;;7386691;19;20132;-68
2022/07/28 01:37:44;;;;;;;0.30;0.30;;;;;;;;;;7389587;19;20123;-68
2022/07/28 01:40:11;;;;;;;0.43;0.43;;;;;;;;;;7388927;19;20138;-68
2022/07/28 01:42:40;;;;;;;0.40;0.40;;;;;;;;;;7388104;19;20178;-68
2022/07/28 01:45:07;;;;;;;0.30;0.30;;;;;;;;;;7385783;19;20595;-68
2022/07/28 01:47:33;;;;;;;0.30;0.30;;;;;;;;;;7395832;19;20196;-68
2022/07/28 01:50:00;;;;;;;0.35;0.35;;;;;;;;;;7396212;19;20134;-67
2022/07/28 01:52:26;;;;;;;0.30;0.30;;;;;;;;;;7394750;19;20168;-67
2022/07/28 01:54:52;;;;;;;0.30;0.30;;;;;;;;;;7394704;19;20133;-67
2022/07/28 01:57:18;;;;;;;0.45;0.40;;;;;;;;;;7398747;19;20559;-67
2022/07/28 01:59:44;;;;;;;0.40;0.40;;;;;;;;;;7395555;19;20125;-67
2022/07/28 02:02:10;;;;;;;0.30;0.30;;;;;;;;;;7393486;19;20517;-67
2022/07/28 02:04:38;;;;;;;0.30;0.30;;;;;;;;;;7394208;19;20196;-67
2022/07/28 02:07:04;;;;;;;0.40;0.40;;;;;;;;;;7396017;19;20138;-67
2022/07/28 02:09:30;;;;;;;0.38;0.38;;;;;;;;;;7395596;19;20144;-68
2022/07/28 02:11:55;;;;;;;0.50;0.50;;;;;;;;;;7393932;19;20149;-67
2022/07/28 02:14:23;;;;;;;0.40;0.40;;;;;;;;;;7393955;19;20591;-67
2022/07/28 02:16:53;;;;;;;0.32;0.32;;;;;;;;;;7397160;19;20538;-68
2022/07/28 02:19:20;;;;;;;0.30;0.30;;;;;;;;;;7390616;19;20476;-68
2022/07/28 02:21:49;;;;;;;0.30;0.30;;;;;;;;;;7395921;19;20245;-65
2022/07/28 02:24:16;;;;;;;0.20;0.20;;;;;;;;;;7394688;19;20125;-68
2022/07/28 02:26:47;;;;;;;0.30;0.30;;;;;;;;;;7396460;19;20189;-68
2022/07/28 02:29:13;;;;;;;0.40;0.40;;;;;;;;;;7396132;19;20155;-68
2022/07/28 02:31:58;;;;;;;0.30;0.30;;;;;;;;;;7395564;19;20137;-68
2022/07/28 02:34:25;;;;;;;0.40;0.40;;;;;;;;;;7394778;19;20601;-67
2022/07/28 02:37:00;;;;;;;0.30;0.30;;;;;;;;;;7394895;19;20117;-67
2022/07/28 02:39:41;;;;;;;0.30;0.30;;;;;;;;;;7394592;19;20489;-68
2022/07/28 02:42:12;;;;;;;0.60;0.60;;;;;;;;;;7394549;19;20152;-67
2022/07/28 02:44:44;;;;;;;0.32;0.32;;;;;;;;;;7393383;19;20128;-68
2022/07/28 02:47:11;;;;;;;0.38;0.38;;;;;;;;;;7393314;19;20138;-67
2022/07/28 02:49:37;;;;;;;0.30;0.30;;;;;;;;;;7394967;19;20128;-66
2022/07/28 02:52:06;;;;;;;0.20;0.20;;;;;;;;;;7391431;19;20643;-67
2022/07/28 02:54:33;;;;;;;0.30;0.30;;;;;;;;;;7393169;19;20198;-67
2022/07/28 02:56:59;;;;;;;0.30;0.30;;;;;;;;;;7392546;19;20619;-66
2022/07/28 02:59:25;;;;;;;0.30;0.30;;;;;;;;;;7393847;19;20133;-66
2022/07/28 03:01:51;;;;;;;0.30;0.30;;;;;;;;;;7391842;19;20186;-65
2022/07/28 03:04:55;;;;;;;0.30;0.30;;;;;;;;;;7393183;19;20608;-67
2022/07/28 03:07:03;;;;;;;0.45;0.45;;;;;;;;;;7393948;19;20136;-67
2022/07/28 03:09:28;;;;;;;0.30;0.30;;;;;;;;;;7394998;19;20145;-68
2022/07/28 03:11:54;;;;;;;0.30;0.30;;;;;;;;;;7394140;19;21050;-65
2022/07/28 03:14:19;;;;;;;0.30;0.30;;;;;;;;;;7395009;19;20141;-67
2022/07/28 03:16:44;;;;;;;0.30;0.30;;;;;;;;;;7394953;19;20647;-66
2022/07/28 03:19:10;;;;;;;0.30;0.30;;;;;;;;;;7393802;19;20121;-67
2022/07/28 03:21:36;;;;;;;0.32;0.32;;;;;;;;;;7394756;19;20141;-67
2022/07/28 03:24:01;;;;;;;0.50;0.50;;;;;;;;;;7393860;19;20149;-67
2022/07/28 03:26:35;;;;;;;0.30;0.30;;;;;;;;;;7390111;19;20136;-67
2022/07/28 03:29:01;;;;;;;0.40;0.40;;;;;;;;;;7393103;19;20134;-67
2022/07/28 03:31:27;;;;;;;0.43;0.43;;;;;;;;;;7392248;19;20416;-67
2022/07/28 03:33:52;;;;;;;0.43;0.43;;;;;;;;;;7392314;19;20149;-66
2022/07/28 03:36:22;;;;;;;0.30;0.30;;;;;;;;;;7395064;19;20176;-66
2022/07/28 03:38:53;;;;;;;0.40;0.40;;;;;;;;;;7393061;19;20124;-67
2022/07/28 03:41:19;;;;;;;0.30;0.30;;;;;;;;;;7391044;19;20141;-67
2022/07/28 03:43:44;;;;;;;0.95;0.95;;;;;;;;;;7391766;19;20204;-67
2022/07/28 03:46:10;;;;;;;0.30;0.30;;;;;;;;;;7391258;19;20220;-65
2022/07/28 03:48:35;;;;;;;0.40;0.40;;;;;;;;;;7392901;19;20125;-67
2022/07/28 03:51:00;;;;;;;0.90;0.90;;;;;;;;;;7394592;19;20117;-67
2022/07/28 03:53:28;;;;;;;0.30;0.30;;;;;;;;;;7392384;19;20129;-67
2022/07/28 03:55:53;;;;;;;0.40;0.40;;;;;;;;;;7392029;19;20114;-67
2022/07/28 03:58:24;;;;;;;0.30;0.30;;;;;;;;;;7392981;19;20125;-67
2022/07/28 04:00:49;;;;;;;0.30;0.30;;;;;;;;;;7392560;19;20202;-67
2022/07/28 04:03:16;;;;;;;0.63;0.63;;;;;;;;;;7392286;19;20137;-67
2022/07/28 04:05:42;;;;;;;0.50;0.50;;;;;;;;;;7390123;19;20523;-67
2022/07/28 04:08:07;;;;;;;0.30;0.30;;;;;;;;;;7393475;19;20620;-68
2022/07/28 04:10:32;;;;;;;0.75;0.75;;;;;;;;;;7390645;19;20740;-65
2022/07/28 04:12:58;;;;;;;0.85;0.85;;;;;;;;;;7391910;19;20141;-67
2022/07/28 04:15:25;;;;;;;2.30;1.17;;;;;;;;;;7390050;19;20121;-67
2022/07/28 04:17:51;;;;;;;0.40;0.40;;;;;;;;;;7392239;19;20145;-67
2022/07/28 04:20:18;;;;;;;0.85;0.85;;;;;;;;;;7392035;19;20859;-67
2022/07/28 04:22:44;;;;;;;0.30;0.30;;;;;;;;;;7390590;19;20153;-67
2022/07/28 04:25:13;;;;;;;0.38;0.38;;;;;;;;;;7389512;19;20144;-67
2022/07/28 04:27:39;;;;;;;0.40;0.40;;;;;;;;;;7392585;19;20159;-67
2022/07/28 04:30:07;;;;;;;0.50;0.50;;;;;;;;;;7390221;19;20127;-67
2022/07/28 04:32:32;;;;;;;0.30;0.30;;;;;;;;;;7389873;19;20655;-67
2022/07/28 04:34:57;;;;;;;0.30;0.30;;;;;;;;;;7389029;19;20118;-67
2022/07/28 04:37:23;;;;;;;0.30;0.30;;;;;;;;;;7391053;19;20225;-68
2022/07/28 04:39:49;;;;;;;0.35;0.35;;;;;;;;;;7390818;19;20139;-68
2022/07/28 16:38:40;;;;;;;0.50;0.50;;;;;;;;;;7390893;19;20246;-68
2022/07/28 16:41:05;;;;;;;0.40;0.40;;;;;;;;;;7391342;19;20451;-69
2022/07/28 16:43:30;;;;;;;0.38;0.38;;;;;;;;;;7390749;19;20140;-68
2022/07/28 16:45:56;;;;;;;1.02;0.65;;;;;;;;;;7391851;19;20110;-68
2022/07/28 16:48:21;;;;;;;0.60;0.60;;;;;;;;;;7393488;19;20152;-68
2022/07/28 16:50:46;;;;;;;0.50;0.50;;;;;;;;;;7392213;19;20583;-68
2022/07/28 16:53:12;;;;;;;0.30;0.30;;;;;;;;;;7390348;19;20152;-69
2022/07/28 16:55:39;;;;;;;0.60;0.60;;;;;;;;;;7391544;19;20124;-69
2022/07/28 16:58:04;;;;;;;0.40;0.40;;;;;;;;;;7390358;19;20137;-68
2022/07/28 17:00:29;;;;;;;0.40;0.40;;;;;;;;;;7392516;19;20571;-68
2022/07/28 17:02:54;;;;;;;0.68;0.68;;;;;;;;;;7389643;19;20153;-68
2022/07/28 17:05:20;;;;;;;0.43;0.43;;;;;;;;;;7391709;19;20117;-70
2022/07/28 17:07:46;;;;;;;0.40;0.40;;;;;;;;;;7391365;19;20124;-68
2022/07/28 17:10:13;;;;;;;0.45;0.45;;;;;;;;;;7390060;19;20132;-68
2022/07/28 17:12:38;;;;;;;0.30;0.30;;;;;;;;;;7387964;19;20152;-69
2022/07/28 17:15:04;;;;;;;0.52;0.52;;;;;;;;;;7389081;19;20123;-68
2022/07/28 17:17:30;;;;;;;0.80;0.80;;;;;;;;;;7390132;19;20151;-69
2022/07/28 17:19:55;;;;;;;0.43;0.43;;;;;;;;;;7389577;19;20176;-69
2022/07/28 17:22:21;;;;;;;0.52;0.52;;;;;;;;;;7390223;19;20149;-69
2022/07/28 17:24:47;;;;;;;0.60;0.60;;;;;;;;;;7390545;19;20140;-69
2022/07/28 17:27:12;;;;;;;1.02;0.98;;;;;;;;;;7387829;19;20125;-69
2022/07/28 17:29:38;;;;;;;0.40;0.40;;;;;;;;;;7391445;19;20117;-68
2022/07/28 17:32:04;;;;;;;0.38;0.38;;;;;;;;;;7388533;19;20525;-69
2022/07/28 17:34:30;;;;;;;1.27;0.82;;;;;;;;;;7389966;19;20180;-69
2022/07/28 17:36:56;;;;;;;0.50;0.50;;;;;;;;;;7389663;19;20125;-68
2022/07/28 17:39:22;;;;;;;0.85;0.85;;;;;;;;;;7392395;19;20582;-69
2022/07/28 17:41:47;;;;;;;0.50;0.50;;;;;;;;;;7388640;19;20169;-70
2022/07/28 17:44:13;;;;;;;0.85;0.85;;;;;;;;;;7389832;19;20123;-69
2022/07/28 17:46:38;;;;;;;1.27;1.17;;;;;;;;;;7391579;19;20134;-69
2022/07/28 17:49:05;;;;;;;0.43;0.43;;;;;;;;;;7389537;19;20482;-69
2022/07/28 17:51:30;;;;;;;0.65;0.65;;;;;;;;;;7388480;19;20625;-68
2022/07/28 17:53:56;;;;;;;0.77;0.77;;;;;;;;;;7388292;19;20125;-69
2022/07/28 17:56:21;;;;;;;0.50;0.50;;;;;;;;;;7390551;19;20134;-69
2022/07/28 17:58:46;;;;;;;0.68;0.68;;;;;;;;;;7390130;19;20123;-69
2022/07/28 18:01:12;;;;;;;0.35;0.35;;;;;;;;;;7388553;19;20145;-69
2022/07/28 18:03:43;;;;;;;0.82;0.82;;;;;;;;;;7387710;19;20125;-69
2022/07/28 18:06:08;;;;;;;3.08;1.05;;;;;;;;;;7387810;19;20125;-69
2022/07/28 18:08:34;;;;;;;0.57;0.57;;;;;;;;;;7388254;19;20459;-69
2022/07/28 18:11:00;;;;;;;0.75;0.75;;;;;;;;;;7387461;19;20121;-69
2022/07/28 18:13:25;;;;;;;0.55;0.55;;;;;;;;;;7389617;19;20125;-69
2022/07/28 18:15:51;;;;;;;4.38;0.73;;;;;;;;;;7390570;19;20124;-69
2022/07/28 18:18:16;;;;;;;0.65;0.57;;;;;;;;;;7388229;19;20121;-69
2022/07/28 18:20:42;;;;;;;1.02;1.02;;;;;;;;;;7388440;19;20118;-68
2022/07/28 18:23:08;;;;;;;0.43;0.43;;;;;;;;;;7388432;19;20157;-70
2022/07/28 18:25:34;;;;;;;9.90;0.70;;;;;;;;;;7388629;19;20686;-69
2022/07/28 18:27:59;;;;;;;0.30;0.30;;;;;;;;;;7391555;19;20157;-69
2022/07/28 18:30:25;;;;;;;0.80;0.80;;;;;;;;;;7396845;19;20128;-69
2022/07/28 18:32:50;;;;;;;0.77;0.77;;;;;;;;;;7393694;19;20157;-68
2022/07/28 18:35:17;;;;;;;0.55;0.55;;;;;;;;;;7395980;19;20128;-69
2022/07/28 18:37:43;;;;;;;0.40;0.40;;;;;;;;;;7395570;19;20125;-69
2022/07/28 18:40:09;;;;;;;1.42;1.33;;;;;;;;;;7394741;19;20128;-71
2022/07/28 18:42:34;;;;;;;0.73;0.73;;;;;;;;;;7394218;19;20184;-68
2022/07/28 18:45:00;;;;;;;0.55;0.55;;;;;;;;;;7394976;19;20121;-69
2022/07/28 18:47:26;;;;;;;0.40;0.40;;;;;;;;;;7395979;19;20125;-70
2022/07/28 18:49:52;;;;;;;0.40;0.40;;;;;;;;;;7395676;19;20125;-69
2022/07/28 18:52:18;;;;;;;1.63;0.90;;;;;;;;;;7395104;19;20584;-68
2022/07/28 18:54:43;;;;;;;0.35;0.35;;;;;;;;;;7394833;19;20133;-69
2022/07/28 18:57:08;;;;;;;2.03;0.82;;;;;;;;;;7395055;19;20565;-69
2022/07/28 18:59:34;;;;;;;0.30;0.30;;;;;;;;;;7395235;19;20124;-69
2022/07/28 19:01:59;;;;;;;0.40;0.40;;;;;;;;;;7394198;19;20169;-69
2022/07/28 19:04:24;;;;;;;0.95;0.95;;;;;;;;;;7396186;19;20121;-69
2022/07/28 19:06:50;;;;;;;0.57;0.57;;;;;;;;;;7395938;19;20158;-70
2022/07/28 19:09:15;;;;;;;0.40;0.40;;;;;;;;;;7394862;19;20189;-69
2022/07/28 19:11:40;;;;;;;0.30;0.30;;;;;;;;;;7393094;19;20133;-69
2022/07/28 19:14:06;;;;;;;0.40;0.40;;;;;;;;;;7393404;19;20128;-69
2022/07/28 19:16:32;;;;;;;0.40;0.40;;;;;;;;;;7394609;19;20125;-69
2022/07/28 19:18:57;;;;;;;0.63;0.63;;;;;;;;;;7394909;19;20128;-69
2022/07/28 19:21:23;;;;;;;0.80;0.80;;;;;;;;;;7393676;19;20145;-70
2022/07/28 19:23:49;;;;;;;0.30;0.30;;;;;;;;;;7393531;19;20121;-70
2022/07/28 19:26:15;;;;;;;0.50;0.50;;;;;;;;;;7393546;19;20121;-69
2022/07/28 19:28:41;;;;;;;0.40;0.40;;;;;;;;;;7395650;19;20209;-70
2022/07/28 19:31:06;;;;;;;0.63;0.63;;;;;;;;;;7393689;19;20636;-69
2022/07/28 19:33:31;;;;;;;0.35;0.35;;;;;;;;;;7393862;19;20153;-69
2022/07/28 19:35:58;;;;;;;0.30;0.30;;;;;;;;;;7393749;19;20131;-69
2022/07/28 19:38:24;;;;;;;0.77;0.77;;;;;;;;;;7395403;19;20126;-69
2022/07/28 19:40:49;;;;;;;0.50;0.50;;;;;;;;;;7390033;19;20125;-69
2022/07/28 19:43:15;;;;;;;0.50;0.50;;;;;;;;;;7392875;19;20181;-70
2022/07/28 19:45:40;;;;;;;0.55;0.55;;;;;;;;;;7393086;19;20162;-69
2022/07/28 19:48:06;;;;;;;0.40;0.40;;;;;;;;;;7395375;19;20180;-69
2022/07/28 19:50:31;;;;;;;0.45;0.45;;;;;;;;;;7391975;19;20474;-69
2022/07/28 19:52:57;;;;;;;0.30;0.30;;;;;;;;;;7391737;19;20640;-69
2022/07/28 19:55:22;;;;;;;0.45;0.45;;;;;;;;;;7394807;19;20137;-69
2022/07/28 19:57:48;;;;;;;0.38;0.38;;;;;;;;;;7392584;19;20121;-69
2022/07/28 20:00:16;;;;;;;0.40;0.40;;;;;;;;;;7393664;19;20117;-69
2022/07/28 20:02:41;;;;;;;0.68;0.50;;;;;;;;;;7390507;19;20168;-69
2022/07/28 20:05:07;;;;;;;0.40;0.40;;;;;;;;;;7390941;19;20574;-69
2022/07/28 20:07:32;;;;;;;0.30;0.30;;;;;;;;;;7393052;19;20140;-69
2022/07/28 20:09:59;;;;;;;0.40;0.40;;;;;;;;;;7392455;19;20117;-71
2022/07/28 20:12:25;;;;;;;3.83;0.80;;;;;;;;;;7392682;19;20490;-69
2022/07/28 20:14:50;;;;;;;0.30;0.30;;;;;;;;;;7393525;19;20138;-70
2022/07/28 20:17:16;;;;;;;0.38;0.38;;;;;;;;;;7391936;19;20602;-69
2022/07/28 20:19:41;;;;;;;0.38;0.38;;;;;;;;;;7394002;19;20491;-69
2022/07/28 20:22:06;;;;;;;0.50;0.50;;;;;;;;;;7391906;19;20582;-69
2022/07/28 20:24:32;;;;;;;1.65;0.55;;;;;;;;;;7392276;19;20154;-69
2022/07/28 20:26:59;;;;;;;0.32;0.32;;;;;;;;;;7390154;19;20117;-69
2022/07/28 20:29:25;;;;;;;0.60;0.60;;;;;;;;;;7392399;19;20117;-69
2022/07/28 20:31:50;;;;;;;0.40;0.40;;;;;;;;;;7390493;19;20497;-69
2022/07/28 20:34:15;;;;;;;0.40;0.40;;;;;;;;;;7390107;19;20598;-69
2022/07/28 20:36:41;;;;;;;0.30;0.30;;;;;;;;;;7391507;19;20128;-69
2022/07/28 20:39:06;;;;;;;0.43;0.43;;;;;;;;;;7389838;19;20121;-69
2022/07/28 20:41:31;;;;;;;0.40;0.40;;;;;;;;;;7390292;19;20137;-69
2022/07/28 20:43:57;;;;;;;0.40;0.40;;;;;;;;;;7389536;19;20489;-69
2022/07/28 20:46:23;;;;;;;0.50;0.50;;;;;;;;;;7394881;19;20643;-69
2022/07/28 20:48:48;;;;;;;0.30;0.30;;;;;;;;;;7390982;19;20126;-69
2022/07/28 20:51:13;;;;;;;0.50;0.40;;;;;;;;;;7388989;19;20137;-69
2022/07/28 20:53:39;;;;;;;0.40;0.40;;;;;;;;;;7391435;19;20117;-69
2022/07/28 20:56:04;;;;;;;0.30;0.30;;;;;;;;;;7390975;19;20141;-69
2022/07/28 20:58:33;;;;;;;0.40;0.40;;;;;;;;;;7390519;19;20125;-69
2022/07/28 21:00:58;;;;;;;0.40;0.40;;;;;;;;;;7392202;19;20129;-69
2022/07/28 21:03:23;;;;;;;0.35;0.35;;;;;;;;;;7390666;19;20153;-69
2022/07/28 21:05:48;;;;;;;0.40;0.40;;;;;;;;;;7389437;19;20117;-69
2022/07/28 21:08:14;;;;;;;0.50;0.50;;;;;;;;;;7390328;19;20141;-69
2022/07/28 21:10:39;;;;;;;0.40;0.40;;;;;;;;;;7390830;19;20486;-69
2022/07/28 21:13:05;;;;;;;0.60;0.60;;;;;;;;;;7390113;19;20148;-68
2022/07/28 21:15:30;;;;;;;0.40;0.40;;;;;;;;;;7390494;19;20148;-70
2022/07/28 21:17:55;;;;;;;0.32;0.32;;;;;;;;;;7389889;19;20155;-70
2022/07/28 21:20:22;;;;;;;0.38;0.38;;;;;;;;;;7392276;19;20128;-69
2022/07/28 21:22:47;;;;;;;0.20;0.20;;;;;;;;;;7388199;19;20297;-69
2022/07/28 21:25:13;;;;;;;0.40;0.40;;;;;;;;;;7391501;19;20225;-69
2022/07/28 21:30:22;;;;;;;0.68;0.68;;;;;;;;;;7391811;19;20660;-70
2022/07/28 21:32:48;;;;;;;0.40;0.40;;;;;;;;;;7390107;19;20197;-68
2022/07/28 21:35:13;;;;;;;0.30;0.30;;;;;;;;;;7388545;19;20125;-69
2022/07/28 21:37:38;;;;;;;0.38;0.38;;;;;;;;;;7391539;19;20529;-69
2022/07/28 21:40:04;;;;;;;0.30;0.30;;;;;;;;;;7389106;19;20632;-69
2022/07/28 21:42:29;;;;;;;0.30;0.30;;;;;;;;;;7389854;19;20161;-69
2022/07/28 21:44:55;;;;;;;0.50;0.50;;;;;;;;;;7387532;19;20132;-69
2022/07/28 21:47:20;;;;;;;0.30;0.30;;;;;;;;;;7391597;19;20198;-69
2022/07/28 21:49:45;;;;;;;0.30;0.30;;;;;;;;;;7388828;19;20117;-69
2022/07/28 21:52:11;;;;;;;0.30;0.30;;;;;;;;;;7389513;19;20145;-69
2022/07/28 21:54:36;;;;;;;0.32;0.32;;;;;;;;;;7386942;19;20639;-69
2022/07/28 21:57:01;;;;;;;0.40;0.40;;;;;;;;;;7390006;19;20174;-69
2022/07/28 21:59:26;;;;;;;0.40;0.40;;;;;;;;;;7389349;19;20156;-69
2022/07/28 22:01:52;;;;;;;0.32;0.32;;;;;;;;;;7387490;19;20192;-69
2022/07/28 22:04:17;;;;;;;0.50;0.50;;;;;;;;;;7390730;19;20132;-69
2022/07/28 22:06:43;;;;;;;0.22;0.22;;;;;;;;;;7398781;19;20165;-69
2022/07/28 22:09:08;;;;;;;0.30;0.30;;;;;;;;;;7393933;19;20133;-69
2022/07/28 22:11:33;;;;;;;0.52;0.52;;;;;;;;;;7393107;19;20140;-69
2022/07/28 22:13:59;;;;;;;0.73;0.73;;;;;;;;;;7395620;19;20136;-69
2022/07/28 22:16:24;;;;;;;0.40;0.40;;;;;;;;;;7397293;19;20116;-69
2022/07/28 22:18:49;;;;;;;0.30;0.30;;;;;;;;;;7398071;19;20155;-69
2022/07/28 22:21:14;;;;;;;0.40;0.40;;;;;;;;;;7396030;19;20161;-69
2022/07/28 22:23:40;;;;;;;0.30;0.30;;;;;;;;;;7397443;19;20125;-69
2022/07/28 22:26:06;;;;;;;0.30;0.30;;;;;;;;;;7394264;19;20121;-69
2022/07/28 22:28:31;;;;;;;0.43;0.43;;;;;;;;;;7396858;19;20550;-69
2022/07/28 22:30:57;;;;;;;0.50;0.50;;;;;;;;;;7395864;19;20121;-69
2022/07/28 22:33:23;;;;;;;0.30;0.30;;;;;;;;;;7395941;19;20135;-69
2022/07/28 22:35:48;;;;;;;0.30;0.30;;;;;;;;;;7394975;19;20176;-69
2022/07/28 22:38:13;;;;;;;0.40;0.40;;;;;;;;;;7397714;19;20482;-69
2022/07/28 22:40:39;;;;;;;0.30;0.30;;;;;;;;;;7394472;19;20113;-69
2022/07/28 22:43:04;;;;;;;0.30;0.30;;;;;;;;;;7392713;19;20145;-69
2022/07/28 22:45:29;;;;;;;0.30;0.30;;;;;;;;;;7396579;19;20579;-69
2022/07/28 22:47:54;;;;;;;0.55;0.55;;;;;;;;;;7396803;19;20144;-69
2022/07/28 22:50:20;;;;;;;0.32;0.32;;;;;;;;;;7392966;19;20149;-69
2022/07/28 22:52:45;;;;;;;0.38;0.38;;;;;;;;;;7393880;19;20165;-69
2022/07/28 22:55:11;;;;;;;0.30;0.30;;;;;;;;;;7396642;19;20118;-69
2022/07/28 22:57:36;;;;;;;0.30;0.30;;;;;;;;;;7397224;19;20583;-69
2022/07/28 23:00:03;;;;;;;0.63;0.63;;;;;;;;;;7396254;19;20119;-69
2022/07/28 23:02:29;;;;;;;0.30;0.30;;;;;;;;;;7394549;19;20172;-69
2022/07/28 23:04:54;;;;;;;0.30;0.30;;;;;;;;;;7395262;19;20124;-68
2022/07/28 23:07:19;;;;;;;2.50;0.60;;;;;;;;;;7396641;19;20121;-69
2022/07/28 23:09:45;;;;;;;0.40;0.40;;;;;;;;;;7396283;19;20113;-69
2022/07/28 23:12:10;;;;;;;0.30;0.30;;;;;;;;;;7392465;19;20224;-69
2022/07/28 23:14:35;;;;;;;0.30;0.30;;;;;;;;;;7392364;19;20122;-69
2022/07/28 23:17:01;;;;;;;0.30;0.30;;;;;;;;;;7393980;19;20205;-69
2022/07/28 23:19:26;;;;;;;0.35;0.35;;;;;;;;;;7395453;19;20459;-69
2022/07/28 23:21:51;;;;;;;0.30;0.30;;;;;;;;;;7394616;19;20646;-69
2022/07/28 23:24:17;;;;;;;0.30;0.30;;;;;;;;;;7392301;19;20127;-69
2022/07/28 23:26:42;;;;;;;0.30;0.30;;;;;;;;;;7394098;19;20117;-68
2022/07/28 23:29:07;;;;;;;0.70;0.35;;;;;;;;;;7396395;19;20118;-69
2022/07/28 23:31:33;;;;;;;0.60;0.60;;;;;;;;;;7392284;19;20155;-69
2022/07/28 23:33:58;;;;;;;0.50;0.50;;;;;;;;;;7394082;19;20117;-69
2022/07/28 23:36:24;;;;;;;0.40;0.40;;;;;;;;;;7394443;19;20615;-69
2022/07/28 23:38:49;;;;;;;0.30;0.30;;;;;;;;;;7393073;19;20137;-68
2022/07/28 23:41:15;;;;;;;0.30;0.30;;;;;;;;;;7392678;19;20175;-69
2022/07/28 23:43:40;;;;;;;0.35;0.35;;;;;;;;;;7393106;19;20464;-69
2022/07/28 23:46:06;;;;;;;0.30;0.30;;;;;;;;;;7394758;19;20579;-68
2022/07/28 23:48:31;;;;;;;0.35;0.35;;;;;;;;;;7392152;19;20147;-68
2022/07/28 23:50:57;;;;;;;0.57;0.57;;;;;;;;;;7393409;19;20528;-69
2022/07/28 23:53:23;;;;;;;0.40;0.40;;;;;;;;;;7393429;19;20607;-69
2022/07/28 23:55:48;;;;;;;0.30;0.30;;;;;;;;;;7392605;19;20121;-69
2022/07/28 23:58:13;;;;;;;0.30;0.30;;;;;;;;;;7393919;19;20113;-70
